Flight Track Log - Related Links

Times and Time Zones

All times are in EST time to prevent confusion due to time zone crossing. See the EJA904 flight status page for this flight to view local times or setup timezone preferences in your user account.

Time Position Orientation Groundspeed Altitude Reporting Facility
EST Latitude Longitude Course Direction KTS MPH feet Rate Location/Type
Mon 04:41:15 PM 26.6003 -77.1283 North 503 579 5,900  Level Miami Center
Mon 04:42:15 PM 26.6481 -77.1747 319° Northwest 377 434 8,500 2,550 Climbing Miami Center
Mon 04:43:15 PM 26.7211 -77.2075 338° Northwest 323 372 11,000 2,100 Climbing Miami Center
Mon 04:44:15 PM 26.8111 -77.2336 345° North 312 359 12,700 1,500 Climbing Miami Center
Mon 04:45:15 PM 26.8967 -77.2642 342° North 323 372 14,000 1,650 Climbing Miami Center
Mon 04:46:00 PM 27.3112 -76.9248 North  Level Estimated
Mon 04:46:15 PM 26.9989 -77.2947 345° North 353 406 16,000  Level Miami Center
Mon 04:47:15 PM 27.1031 -77.3278 344° North 374 430 17,800 1,650 Climbing Miami Center
Mon 04:48:15 PM 27.2097 -77.3561 347° North 385 443 19,300 1,450 Climbing Miami Center
Mon 04:49:15 PM 27.3203 -77.3894 345° North 397 457 20,700 1,450 Climbing Miami Center
Mon 04:50:15 PM 27.4350 -77.4133 350° North 403 464 22,200 1,300 Climbing Miami Center
Mon 04:51:15 PM 27.5519 -77.4233 356° North 413 475 23,300 1,150 Climbing Miami Center
Mon 04:52:15 PM 27.6731 -77.4261 359° North 426 490 24,500 1,250 Climbing Miami Center
Mon 04:53:15 PM 27.7983 -77.4361 356° North 431 496 25,800 1,200 Climbing Miami Center
Mon 04:54:15 PM 27.9319 -77.4392 359° North 449 517 26,900 1,150 Climbing Miami Center
Mon 04:55:15 PM 28.0592 -77.4469 357° North 449 517 28,100 1,150 Climbing Miami Center
Mon 04:56:15 PM 28.1825 -77.4547 357° North 448 516 29,200 1,000 Climbing Miami Center
Mon 04:57:15 PM 28.3161 -77.4647 356° North 450 518 30,100 1,050 Climbing Miami Center
Mon 04:58:15 PM 28.4433 -77.4703 358° North 461 531 31,300 1,250 Climbing Miami Center
Mon 04:59:15 PM 28.5686 -77.4803 356° North 461 531 32,600 1,550 Climbing Miami Center
Mon 05:00:15 PM 28.6958 -77.4881 357° North 461 531 34,400 1,750 Climbing Miami Center
Mon 05:01:15 PM 28.8231 -77.4958 357° North 461 531 36,100 1,700 Climbing Miami Center
Mon 05:02:15 PM 28.9442 -77.5036 357° North 453 521 37,800 1,600 Climbing Miami Center
Mon 05:03:15 PM 29.0692 -77.5117 357° North 442 509 39,300 1,250 Climbing Miami Center
Mon 05:04:15 PM 29.1964 -77.5219 356° North 447 514 40,300 850 Climbing Miami Center
Mon 05:05:15 PM 29.3217 -77.5322 356° North 446 513 41,000 350 Climbing Miami Center
Mon 05:06:15 PM 29.4447 -77.5375 358° North 451 519 41,000  Level Miami Center
Mon 05:07:15 PM 29.5781 -77.5456 357° North 466 536 41,000 -50 Level Miami Center
Mon 05:08:15 PM 29.7136 -77.5561 356° North 473 544 40,900 -50 Descending Miami Center
Mon 05:09:15 PM 29.8450 -77.5639 357° North 482 555 40,900 66 Level Miami Center
Mon 05:09:46 PM 29.9086 -77.5594 North 483 556 41,000 66 Climbing Jacksonville Center
Mon 05:10:46 PM 30.0281 -77.5697 356° North 478 550 41,000 -50 Level Jacksonville Center
Mon 05:11:46 PM 30.1683 -77.5836 355° North 484 557 40,900  Descending Jacksonville Center
Mon 05:12:46 PM 30.3128 -77.5925 357° North 474 545 41,000  Climbing Jacksonville Center
Mon 05:13:45 PM 30.4467 -77.5994 357° North 472 543 40,900 -50 Descending Jacksonville Center
Mon 05:14:46 PM 30.5786 -77.6089 356° North 477 549 40,900 50 Level Jacksonville Center
Mon 05:15:46 PM 30.7125 -77.6161 357° North 477 549 41,000  Climbing Jacksonville Center
Mon 05:16:46 PM 30.8461 -77.6206 358° North 482 555 40,900 -50 Descending Jacksonville Center
Mon 05:17:46 PM 30.9783 -77.6328 355° North 482 555 40,900  Level Jacksonville Center
Mon 05:18:46 PM 31.1100 -77.6397 357° North 482 555 40,900  Level Jacksonville Center
Mon 05:19:46 PM 31.2417 -77.6469 357° North 482 555 40,900 50 Level Jacksonville Center
Mon 05:20:46 PM 31.3758 -77.6567 356° North 482 555 41,000  Climbing Jacksonville Center
Mon 05:21:46 PM 31.5078 -77.6661 357° North 477 549 40,900 -50 Descending Jacksonville Center
Mon 05:22:46 PM 31.6417 -77.6733 357° North 477 549 40,900 50 Level Jacksonville Center
Mon 05:23:46 PM 31.7758 -77.6878 355° North 482 555 41,000  Climbing Jacksonville Center
Mon 05:24:45 PM 31.9056 -77.6975 356° North 482 555 40,900 -50 Descending Jacksonville Center
Mon 05:25:45 PM 32.0394 -77.7072 356° North 482 555 40,900  Level Jacksonville Center
Mon 05:26:46 PM 32.1733 -77.7119 358° North 482 555 40,900 50 Level Jacksonville Center
Mon 05:27:46 PM 32.3114 -77.6694 15° North 487 560 41,000 50 Climbing Jacksonville Center
Mon 05:28:46 PM 32.4489 -77.6150 18° North 500 575 41,000  Level Jacksonville Center
Mon 05:29:45 PM 32.5825 -77.5628 18° North 506 582 41,000  Level Jacksonville Center
Mon 05:30:46 PM 32.7219 -77.5075 18° North 506 582 41,000  Level Jacksonville Center
Mon 05:32:16 PM 32.9081 -77.4367 18° North 505 581 41,000 -41 Level Washington Center
Mon 05:33:14 PM 33.0467 -77.3803 19° North 505 581 40,900 -50 Descending Washington Center
Mon 05:34:15 PM 33.1853 -77.3236 19° North 510 587 40,900  Level Washington Center
Mon 05:35:15 PM 33.3236 -77.2692 18° North 515 593 40,900  Level Washington Center
Mon 05:36:16 PM 33.4600 -77.2147 18° North 515 593 40,900 50 Level Washington Center
Mon 05:37:16 PM 33.5983 -77.1625 17° North 515 593 41,000 51 Climbing Washington Center
Mon 05:38:14 PM 33.7367 -77.1053 19° North 515 593 41,000 -50 Level Washington Center
Mon 05:39:16 PM 33.8750 -77.0503 18° North 520 598 40,900  Descending Washington Center
Mon 05:40:14 PM 34.0281 -76.9903 18° North 525 604 41,000 51 Climbing Washington Center
Mon 05:41:14 PM 34.1642 -76.9350 19° North 525 604 41,000  Level Washington Center
Mon 05:42:15 PM 34.3025 -76.8767 19° North 525 604 41,000 -49 Level Washington Center
Mon 05:43:16 PM 34.4389 -76.8236 18° North 525 604 40,900 -50 Descending Washington Center
Mon 05:44:16 PM 34.5792 -76.7675 18° North 525 604 40,900  Level Washington Center
Mon 05:45:14 PM 34.7175 -76.7114 18° North 525 604 40,900  Level Washington Center
Mon 05:46:14 PM 34.8536 -76.6525 20° North 525 604 40,900  Level Washington Center
Mon 05:47:14 PM 34.9939 -76.5986 17° North 525 604 40,900 50 Level Washington Center
Mon 05:48:15 PM 35.1342 -76.5394 19° North 525 604 41,000 50 Climbing Washington Center
Mon 05:49:15 PM 35.2722 -76.4800 19° North 525 604 41,000 -49 Level Washington Center
Mon 05:50:17 PM 35.3958 -76.4253 20° North 525 604 40,900 -50 Descending Washington Center
Mon 05:51:14 PM 35.5358 -76.3681 18° North 525 604 40,900  Level Washington Center
Mon 05:52:15 PM 35.6739 -76.3081 19° North 525 604 40,900 49 Level Washington Center
Mon 05:53:16 PM 35.8142 -76.2528 18° North 525 604 41,000  Climbing Washington Center
Mon 05:54:14 PM 35.9522 -76.1925 19° North 525 604 40,900 -50 Descending Washington Center
Mon 05:55:15 PM 36.0922 -76.1317 19° North 525 604 40,900  Level Washington Center
Mon 05:56:15 PM 36.2322 -76.0761 18° North 525 604 40,900  Level Washington Center
Mon 05:57:16 PM 36.3681 -76.0175 19° North 525 604 40,900 50 Level Washington Center
Mon 05:58:15 PM 36.5039 -75.9564 20° North 525 604 41,000 50 Climbing Washington Center
Mon 05:59:15 PM 36.6564 -75.8922 19° North 525 604 41,000  Level Washington Center
Mon 06:00:15 PM 36.7775 -75.8408 19° North 518 596 41,000 -50 Level Washington Center
Mon 06:01:16 PM 36.9319 -75.7711 20° North 528 608 40,900 -50 Descending Washington Center
Mon 06:02:16 PM 37.0675 -75.7142 19° North 522 601 40,900 51 Level Washington Center
Mon 06:03:14 PM 37.2053 -75.6569 18° North 517 595 41,000 50 Climbing Washington Center
Mon 06:04:15 PM 37.3431 -75.5969 19° North 517 595 41,000  Level Washington Center
Mon 06:05:16 PM 37.4808 -75.5342 20° North 522 601 41,000  Level Washington Center
Mon 06:06:17 PM 37.6183 -75.4739 19° North 527 606 41,000  Level Washington Center
Mon 06:07:14 PM 37.7581 -75.4133 19° North 527 606 41,000  Level Washington Center
Mon 06:08:15 PM 37.8956 -75.3522 19° North 527 606 41,000  Level Washington Center
Mon 06:09:16 PM 38.0350 -75.2886 20° North 527 606 41,000  Level Washington Center
Mon 06:10:16 PM 38.1747 -75.2272 19° North 527 606 41,000  Level Washington Center
Mon 06:11:16 PM 38.3119 -75.1656 19° North 527 606 41,000 -51 Level Washington Center
Mon 06:12:14 PM 38.4494 -75.1039 19° North 527 606 40,900 -50 Descending Washington Center
Mon 06:13:15 PM 38.5847 -75.0339 22° Northeast 527 606 40,900 50 Level Washington Center
Mon 06:14:15 PM 38.7261 -74.9717 19° North 527 606 41,000 -545 Climbing Washington Center
Mon 06:15:16 PM 38.8633 -74.9119 19° North 522 601 39,800 -1,636 Descending Washington Center
Mon 06:16:16 PM 39.0006 -74.8436 21° North 522 601 37,700 -2,331 Descending Washington Center
Mon 06:17:17 PM 39.1314 -74.7622 26° Northeast 522 601 35,100 -3,277 Descending Washington Center
Mon 06:18:15 PM 39.2514 -74.6428 38° Northeast 533 613 31,200 -3,153 Descending Washington Center
Mon 06:19:15 PM 39.3650 -74.5206 40° Northeast 538 619 28,900 -2,480 Descending Washington Center
Mon 06:20:45 PM 39.5297 -74.3506 38° Northeast 534 615 25,000 -1,947 Descending New York Center
Mon 06:21:46 PM 39.6417 -74.2350 38° Northeast 528 608 24,000 -1,279 Descending New York Center
Mon 06:23:48 PM 39.8728 -73.9853 40° Northeast 504 580 21,100 -1,443 Descending Boston Center
Mon 06:24:49 PM 39.9742 -73.8767 39° Northeast 481 554 19,600 -1,475 Descending Boston Center
Mon 06:25:50 PM 40.0750 -73.7711 39° Northeast 471 542 18,100 -1,289 Descending Boston Center
Mon 06:26:50 PM 40.1769 -73.6614 39° Northeast 469 540 17,000 -595 Descending Boston Center
Mon 06:27:51 PM 40.2728 -73.5564 40° Northeast 452 520 16,900 -48 Descending Boston Center
Mon 06:28:55 PM 40.3722 -73.4589 37° Northeast 450 518 16,900  Level Boston Center
Mon 06:29:55 PM 40.4922 -73.4108 17° North 444 511 16,900 -50 Level Boston Center
Mon 06:30:56 PM 40.6142 -73.3697 14° North 450 518 16,800 -541 Descending Boston Center
Mon 06:31:57 PM 40.7181 -73.3303 16° North 381 438 15,800 -871 Descending Boston Center
Mon 06:33:00 PM 40.8028 -73.2808 24° Northeast 342 394 15,000 -1,378 Descending Boston Center
Mon 06:34:12 PM 40.8833 -73.1167 57° Northeast 401 461 12,700 -1,818 Descending New York TRACON
Mon 06:35:12 PM 40.9333 -73.0167 56° Northeast 338 389 11,000 -1,750 Descending New York TRACON
Mon 06:36:12 PM 41.0000 -72.9833 21° North 279 321 9,200 -1,737 Descending New York TRACON
Mon 06:37:06 PM 41.0500 -73.0333 323° Northwest 252 290 7,700 -1,722 Descending New York TRACON
Mon 06:38:00 PM 41.0667 -73.1000 288° West 234 269 6,100 -1,800 Descending New York TRACON
Mon 06:39:06 PM 41.1000 -73.2000 294° West 228 262 4,100 -1,000 Descending New York TRACON
Mon 06:40:06 PM 41.1167 -73.2667 288° West 223 257 4,000 -50 Descending New York TRACON
Mon 06:41:06 PM 41.1333 -73.3500 285° West 225 259 4,000  Level New York TRACON
Mon 06:42:06 PM 41.1667 -73.4333 298° West 220 253 4,000  Level New York TRACON
Mon 06:43:00 PM 41.1833 -73.4833 294° West 211 243 4,000  Level New York TRACON
Mon 06:44:00 PM 41.2000 -73.5500 288° West 178 205 4,000 -450 Level New York TRACON
Mon 06:45:00 PM 41.2000 -73.6167 270° West 157 181 3,100 -550 Descending New York TRACON
Mon 06:46:00 PM 41.2000 -73.6667 270° West 157 181 2,900 -500 Descending New York TRACON
Mon 06:47:00 PM 41.2000 -73.7333 270° West 174 200 2,100 -450 Descending New York TRACON
Mon 06:48:00 PM 41.1500 -73.7500 194° South 156 180 2,000 -300 Descending New York TRACON
Mon 06:49:00 PM 41.1167 -73.7500 180° South 137 158 1,500 -600 Descending New York TRACON
Mon 06:50:00 PM 41.0833 -73.7167 143° Southeast 132 152 800 -700 Descending New York TRACON
Mon 06:52:00 PM 41.0667 -73.7000 169° South  Level FlightAware Approximate
Mon 06:59:00 PM 41.0669 -73.7076 169° South  Level Estimated

Login

Don't have an account? Register now (free) for customized features, flight alerts, and more!